createdAt,value
2022-09-03T00:00:09.440Z,18.00
2022-09-03T00:03:06.421Z,17.90
2022-09-03T00:06:30.730Z,17.90
2022-09-03T00:09:24.789Z,17.90
2022-09-03T00:12:26.900Z,17.90
2022-09-03T00:15:12.276Z,17.90
2022-09-03T00:18:04.842Z,17.90
2022-09-03T00:20:50.955Z,17.90
2022-09-03T00:23:30.369Z,17.80
2022-09-03T00:26:12.357Z,17.90
2022-09-03T00:29:06.608Z,17.90
2022-09-03T00:31:47.605Z,17.90
2022-09-03T00:34:37.997Z,17.90
2022-09-03T00:37:05.554Z,17.80
2022-09-03T00:39:33.810Z,17.90
2022-09-03T00:42:37.523Z,17.80
2022-09-03T00:45:57.830Z,17.80
2022-09-03T00:48:48.664Z,17.90
2022-09-03T00:51:33.944Z,17.80
2022-09-03T00:55:01.512Z,17.80
2022-09-03T00:58:13.877Z,17.90
2022-09-03T01:00:45.629Z,17.80
2022-09-03T01:04:06.509Z,17.90
2022-09-03T01:07:10.421Z,17.90
2022-09-03T01:10:16.381Z,17.80
2022-09-03T01:13:30.000Z,17.90
2022-09-03T01:16:39.847Z,17.90
2022-09-03T01:20:02.959Z,17.80
2022-09-03T01:23:14.379Z,17.80
2022-09-03T01:26:35.408Z,17.90
2022-09-03T01:29:35.264Z,17.80
2022-09-03T01:32:34.797Z,17.80
2022-09-03T01:35:47.486Z,17.70
2022-09-03T01:38:47.223Z,17.70
2022-09-03T01:42:21.304Z,17.70
2022-09-03T01:45:22.569Z,17.70
2022-09-03T01:48:42.212Z,17.60
2022-09-03T01:51:23.169Z,17.70
2022-09-03T01:54:22.013Z,17.70
2022-09-03T01:57:46.041Z,17.70
2022-09-03T02:00:20.640Z,17.70
2022-09-03T02:02:54.244Z,17.70
2022-09-03T02:05:29.201Z,17.80
2022-09-03T02:08:07.350Z,17.80
2022-09-03T02:10:53.685Z,17.80
2022-09-03T02:13:51.140Z,17.80
2022-09-03T02:16:28.384Z,17.80
2022-09-03T02:19:03.349Z,17.70
2022-09-03T02:21:40.794Z,17.70
2022-09-03T02:24:09.439Z,17.70
2022-09-03T02:26:37.059Z,17.70
2022-09-03T02:29:05.495Z,17.70
2022-09-03T02:31:33.809Z,17.70
2022-09-03T02:34:01.259Z,17.70
2022-09-03T02:36:46.555Z,17.70
2022-09-03T02:39:16.707Z,17.60
2022-09-03T02:41:44.833Z,17.60
2022-09-03T02:44:33.157Z,17.60
2022-09-03T02:47:06.924Z,17.60
2022-09-03T02:49:35.349Z,17.70
2022-09-03T02:52:09.701Z,17.70
2022-09-03T02:54:40.041Z,17.60
2022-09-03T02:57:16.089Z,17.60
2022-09-03T02:59:51.122Z,17.60
2022-09-03T03:02:18.540Z,17.60
2022-09-03T03:04:45.940Z,17.60
2022-09-03T03:07:14.107Z,17.60
2022-09-03T03:09:42.416Z,17.50
2022-09-03T03:12:10.370Z,17.50
2022-09-03T03:14:37.782Z,17.50
2022-09-03T03:17:05.729Z,17.40
2022-09-03T03:19:33.157Z,17.40
2022-09-03T03:22:00.789Z,17.50
2022-09-03T03:24:28.507Z,17.40
2022-09-03T03:26:59.809Z,17.40
2022-09-03T03:29:27.936Z,17.40
2022-09-03T03:31:55.235Z,17.40
2022-09-03T03:34:23.369Z,17.50
2022-09-03T03:36:50.764Z,17.40
2022-09-03T03:39:18.300Z,17.50
2022-09-03T03:41:45.663Z,17.40
2022-09-03T03:44:12.977Z,17.40
2022-09-03T03:46:41.929Z,17.50
2022-09-03T03:49:11.100Z,17.50
2022-09-03T03:51:39.313Z,17.50
2022-09-03T03:54:06.933Z,17.50
2022-09-03T03:56:35.478Z,17.50
2022-09-03T03:59:03.611Z,17.50
2022-09-03T04:01:31.116Z,17.50
2022-09-03T04:04:01.807Z,17.50
2022-09-03T04:06:29.592Z,17.50
2022-09-03T04:08:57.031Z,17.50
2022-09-03T04:11:27.058Z,17.50
2022-09-03T04:13:54.897Z,17.50
2022-09-03T04:16:27.416Z,17.50
2022-09-03T04:18:56.800Z,17.50
2022-09-03T04:21:31.551Z,17.40
2022-09-03T04:23:59.473Z,17.50
2022-09-03T04:26:34.274Z,17.40
2022-09-03T04:29:07.223Z,17.40
2022-09-03T04:31:38.752Z,17.40
2022-09-03T04:34:07.418Z,17.40
2022-09-03T04:36:35.177Z,17.30
2022-09-03T04:39:02.863Z,17.40
2022-09-03T04:41:31.894Z,17.40
2022-09-03T04:44:00.394Z,17.40
2022-09-03T04:46:35.367Z,17.40
2022-09-03T04:49:03.018Z,17.50
2022-09-03T04:51:31.809Z,17.50
2022-09-03T04:54:02.542Z,17.50
2022-09-03T04:56:35.112Z,17.50
2022-09-03T04:59:09.586Z,17.50
2022-09-03T05:01:40.586Z,17.50
2022-09-03T05:04:08.988Z,17.50
2022-09-03T05:06:37.657Z,17.50
2022-09-03T05:09:06.010Z,17.50
2022-09-03T05:11:36.272Z,17.50
2022-09-03T05:14:05.873Z,17.60
2022-09-03T05:16:33.379Z,17.60
2022-09-03T05:19:01.435Z,17.60
2022-09-03T05:21:30.732Z,17.60
2022-09-03T05:24:01.860Z,17.60
2022-09-03T05:26:37.129Z,17.60
2022-09-03T05:29:07.813Z,17.70
2022-09-03T05:31:39.575Z,17.70
2022-09-03T05:34:07.754Z,17.70
2022-09-03T05:36:38.313Z,17.70
2022-09-03T05:39:06.503Z,17.70
2022-09-03T05:41:34.465Z,17.70
2022-09-03T05:44:02.579Z,17.70
2022-09-03T05:46:35.077Z,17.70
2022-09-03T05:49:06.438Z,17.70
2022-09-03T05:51:36.693Z,17.70
2022-09-03T05:54:04.266Z,17.70
2022-09-03T05:56:35.697Z,17.70
2022-09-03T05:59:09.367Z,17.70
2022-09-03T06:01:50.937Z,17.70
2022-09-03T06:04:20.393Z,17.80
2022-09-03T06:06:49.030Z,17.80
2022-09-03T06:09:23.288Z,17.80
2022-09-03T06:11:54.343Z,17.80
2022-09-03T06:14:25.244Z,17.80
2022-09-03T06:16:53.089Z,17.70
2022-09-03T06:19:20.999Z,17.80
2022-09-03T06:21:48.891Z,17.80
2022-09-03T06:24:26.472Z,17.80
2022-09-03T06:26:59.346Z,17.80
2022-09-03T06:29:27.644Z,17.90
2022-09-03T06:31:55.085Z,17.90
2022-09-03T06:34:25.561Z,17.90
2022-09-03T06:36:54.554Z,17.90
2022-09-03T06:39:22.421Z,18.00
2022-09-03T06:41:51.847Z,18.00
2022-09-03T06:44:19.320Z,18.00
2022-09-03T06:46:48.502Z,18.00
2022-09-03T06:49:15.853Z,18.00
2022-09-03T06:51:44.075Z,18.10
2022-09-03T06:54:13.262Z,18.10
2022-09-03T06:56:41.985Z,18.10
2022-09-03T06:59:15.224Z,18.10
2022-09-03T07:01:46.159Z,18.20
2022-09-03T07:04:20.275Z,18.30
2022-09-03T07:06:47.809Z,18.30
2022-09-03T07:09:18.150Z,18.30
2022-09-03T07:11:49.388Z,18.40
2022-09-03T07:14:22.305Z,18.40
2022-09-03T07:16:50.688Z,18.40
2022-09-03T07:19:18.348Z,18.40
2022-09-03T07:21:49.988Z,18.40
2022-09-03T07:24:22.796Z,18.50
2022-09-03T07:26:50.218Z,18.60
2022-09-03T07:29:21.902Z,18.60
2022-09-03T07:31:51.934Z,18.60
2022-09-03T07:34:22.125Z,18.70
2022-09-03T07:36:51.384Z,18.70
2022-09-03T07:39:19.838Z,18.70
2022-09-03T07:41:47.769Z,18.80
2022-09-03T07:44:19.752Z,18.80
2022-09-03T07:46:51.944Z,18.80
2022-09-03T07:49:21.732Z,18.80
2022-09-03T07:51:54.305Z,18.90
2022-09-03T07:54:23.572Z,18.90
2022-09-03T07:56:51.394Z,18.90
2022-09-03T07:59:19.250Z,18.90
2022-09-03T08:01:46.572Z,19.00
2022-09-03T08:04:14.137Z,19.00
2022-09-03T08:06:42.286Z,19.00
2022-09-03T08:09:13.930Z,19.00
2022-09-03T08:11:43.761Z,19.00
2022-09-03T08:14:15.435Z,19.00
2022-09-03T08:16:48.081Z,19.00
2022-09-03T08:19:18.424Z,19.00
2022-09-03T08:21:46.149Z,19.00
2022-09-03T08:24:20.916Z,19.10
2022-09-03T08:26:52.132Z,19.10
2022-09-03T08:29:21.467Z,19.10
2022-09-03T08:31:49.295Z,19.10
2022-09-03T08:34:17.803Z,19.10
2022-09-03T08:36:47.273Z,19.10
2022-09-03T08:39:14.776Z,19.10
2022-09-03T08:42:29.147Z,19.10
2022-09-03T08:45:06.630Z,19.10
2022-09-03T08:47:48.290Z,18.80
2022-09-03T08:50:36.044Z,18.60
2022-09-03T08:53:55.965Z,18.50
2022-09-03T08:56:33.026Z,18.50
2022-09-03T08:59:02.200Z,18.50
2022-09-03T09:02:51.039Z,18.50
2022-09-03T09:05:47.064Z,18.50
2022-09-03T09:09:03.054Z,18.50
2022-09-03T09:12:15.963Z,18.40
2022-09-03T09:15:43.237Z,18.40
2022-09-03T09:19:03.352Z,18.40
2022-09-03T09:22:41.228Z,18.50
2022-09-03T09:25:20.528Z,18.50
2022-09-03T09:28:36.156Z,18.50
2022-09-03T09:31:11.617Z,18.50
2022-09-03T09:33:39.384Z,18.50
2022-09-03T09:36:15.368Z,18.50
2022-09-03T09:38:45.556Z,18.50
2022-09-03T09:41:23.369Z,18.50
2022-09-03T09:44:05.704Z,18.50
2022-09-03T09:46:43.124Z,18.50
2022-09-03T09:49:58.602Z,18.60
2022-09-03T09:52:30.273Z,18.50
2022-09-03T09:55:19.190Z,18.50
2022-09-03T09:57:47.331Z,18.50
2022-09-03T10:00:18.781Z,18.50
2022-09-03T10:02:54.755Z,18.60
2022-09-03T10:05:36.795Z,18.60
2022-09-03T10:08:22.023Z,18.60
2022-09-03T10:10:51.832Z,18.60
2022-09-03T10:13:30.789Z,18.60
2022-09-03T10:16:43.315Z,18.60
2022-09-03T10:19:26.216Z,18.70
2022-09-03T10:22:18.862Z,18.60
2022-09-03T10:25:02.888Z,18.60
2022-09-03T10:27:32.139Z,18.70
2022-09-03T10:30:00.730Z,18.70
2022-09-03T10:33:07.116Z,18.60
2022-09-03T10:35:52.716Z,18.60
2022-09-03T10:38:34.591Z,18.70
2022-09-03T10:41:55.832Z,18.80
2022-09-03T10:44:43.681Z,19.00
2022-09-03T10:48:17.309Z,19.10
2022-09-03T10:51:49.488Z,19.20
2022-09-03T10:55:03.939Z,19.30
2022-09-03T10:58:38.338Z,19.30
2022-09-03T11:02:15.290Z,19.50
2022-09-03T11:05:30.529Z,19.60
2022-09-03T11:08:21.957Z,19.80
2022-09-03T11:11:08.764Z,20.10
2022-09-03T11:14:12.249Z,20.10
2022-09-03T11:16:54.245Z,20.30
2022-09-03T11:20:06.519Z,20.40
2022-09-03T11:22:35.000Z,20.70
2022-09-03T11:25:05.589Z,20.80
2022-09-03T11:28:12.780Z,21.00
2022-09-03T11:31:52.945Z,21.10
2022-09-03T11:34:32.266Z,21.40
2022-09-03T11:37:26.280Z,21.50
2022-09-03T11:40:19.368Z,21.60
2022-09-03T11:42:47.385Z,21.70
2022-09-03T11:45:30.174Z,21.80
2022-09-03T11:47:57.781Z,21.80
2022-09-03T11:50:34.543Z,21.80
2022-09-03T11:53:15.118Z,21.80
2022-09-03T11:56:05.198Z,21.80
2022-09-03T11:58:42.960Z,21.90
2022-09-03T12:01:20.748Z,22.00
2022-09-03T12:04:09.756Z,22.10
2022-09-03T12:07:40.595Z,22.20
2022-09-03T12:10:41.751Z,22.30
2022-09-03T12:14:21.330Z,22.50
2022-09-03T12:18:31.967Z,22.70
2022-09-03T12:21:00.166Z,22.80
2022-09-03T12:23:51.035Z,22.80
2022-09-03T12:26:27.552Z,22.80
2022-09-03T12:29:00.872Z,23.00
2022-09-03T12:31:46.760Z,23.00
2022-09-03T12:34:18.636Z,23.00
2022-09-03T12:36:52.148Z,22.90
2022-09-03T12:42:30.880Z,23.00
2022-09-03T12:45:12.728Z,23.20
2022-09-03T12:47:41.994Z,23.30
2022-09-03T12:50:17.075Z,23.50
2022-09-03T12:52:53.782Z,23.60
2022-09-03T12:55:36.830Z,23.90
2022-09-03T12:58:54.342Z,24.10
2022-09-03T13:01:33.456Z,24.30
2022-09-03T13:04:15.269Z,24.50
2022-09-03T13:07:08.275Z,24.70
2022-09-03T13:09:39.889Z,24.70
2022-09-03T13:12:07.856Z,24.80
2022-09-03T13:14:48.273Z,24.80
2022-09-03T13:18:01.983Z,24.80
2022-09-03T13:21:32.589Z,24.80
2022-09-03T13:25:01.983Z,24.80
2022-09-03T13:28:18.956Z,24.80
2022-09-03T13:31:21.662Z,25.00
2022-09-03T13:34:12.928Z,25.20
2022-09-03T13:37:10.143Z,25.30
2022-09-03T13:40:36.249Z,25.40
2022-09-03T13:43:43.536Z,25.50
2022-09-03T13:47:02.577Z,25.50
2022-09-03T13:50:09.206Z,25.40
2022-09-03T13:53:10.504Z,25.30
2022-09-03T13:55:55.828Z,25.30
2022-09-03T13:58:48.920Z,25.40
2022-09-03T14:01:46.074Z,25.40
2022-09-03T14:04:29.169Z,25.40
2022-09-03T14:07:15.756Z,25.40
2022-09-03T14:10:46.541Z,25.30
2022-09-03T14:13:59.490Z,25.40
2022-09-03T14:16:39.802Z,25.30
2022-09-03T14:20:00.540Z,25.30
2022-09-03T14:23:08.785Z,25.20
2022-09-03T14:25:37.108Z,25.20
2022-09-03T14:28:44.435Z,25.00
2022-09-03T14:32:03.445Z,25.00
2022-09-03T14:35:52.839Z,24.90
2022-09-03T14:39:24.566Z,24.80
2022-09-03T14:42:07.823Z,24.60
2022-09-03T14:45:13.367Z,24.50
2022-09-03T14:48:58.248Z,24.40
2022-09-03T14:52:39.423Z,24.30
2022-09-03T14:55:40.692Z,24.10
2022-09-03T14:58:54.059Z,24.10
2022-09-03T15:01:39.451Z,24.00
2022-09-03T15:04:50.259Z,23.90
2022-09-03T15:07:59.113Z,23.90
2022-09-03T15:10:56.397Z,23.90
2022-09-03T15:14:18.679Z,23.70
2022-09-03T15:17:24.664Z,23.70
2022-09-03T15:20:53.359Z,23.60
2022-09-03T15:23:59.916Z,23.60
2022-09-03T15:27:19.298Z,23.50
2022-09-03T15:30:13.191Z,23.40
2022-09-03T15:33:06.855Z,23.40
2022-09-03T15:36:14.996Z,23.40
2022-09-03T15:39:09.322Z,23.40
2022-09-03T15:42:10.347Z,23.30
2022-09-03T15:44:57.086Z,23.40
2022-09-03T15:47:50.719Z,23.40
2022-09-03T15:50:58.942Z,23.60
2022-09-03T15:54:16.386Z,23.60
2022-09-03T15:57:15.591Z,23.60
2022-09-03T16:00:13.245Z,23.60
2022-09-03T16:03:20.388Z,23.60
2022-09-03T16:06:17.237Z,23.60
2022-09-03T16:09:03.223Z,23.50
2022-09-03T16:12:07.424Z,23.50
2022-09-03T16:15:00.864Z,23.50
2022-09-03T16:18:37.376Z,23.40
2022-09-03T16:21:43.505Z,23.40
2022-09-03T16:25:07.408Z,23.50
2022-09-03T16:28:19.743Z,23.40
2022-09-03T16:31:57.273Z,23.40
2022-09-03T16:35:44.020Z,23.40
2022-09-03T16:38:46.697Z,23.40
2022-09-03T16:41:58.316Z,23.40
2022-09-03T16:45:20.301Z,23.40
2022-09-03T16:48:50.813Z,23.30
2022-09-03T16:51:55.349Z,23.30
2022-09-03T16:55:14.737Z,23.30
2022-09-03T16:58:26.961Z,23.20
2022-09-03T17:02:23.687Z,23.20
2022-09-03T17:05:12.501Z,23.10
2022-09-03T17:08:42.561Z,23.00
2022-09-03T17:12:04.833Z,22.90
2022-09-03T17:15:16.843Z,22.90
2022-09-03T17:18:49.889Z,22.80
2022-09-03T17:22:20.675Z,22.70
2022-09-03T17:25:05.789Z,22.70
2022-09-03T17:28:22.691Z,22.60
2022-09-03T17:31:37.386Z,22.60
2022-09-03T17:35:00.881Z,22.50
2022-09-03T17:38:50.821Z,22.50
2022-09-03T17:42:12.558Z,22.40
2022-09-03T17:45:35.214Z,22.40
2022-09-03T17:48:42.186Z,22.40
2022-09-03T17:51:50.442Z,22.30
2022-09-03T17:54:37.184Z,22.30
2022-09-03T17:57:38.240Z,22.30
2022-09-03T18:00:21.992Z,22.20
2022-09-03T18:03:49.688Z,22.20
2022-09-03T18:06:41.802Z,22.10
2022-09-03T18:09:57.412Z,22.10
2022-09-03T18:13:55.524Z,22.10
2022-09-03T18:16:39.624Z,22.00
2022-09-03T18:19:58.543Z,22.00
2022-09-03T18:23:03.070Z,21.90
2022-09-03T18:25:52.270Z,21.90
2022-09-03T18:29:18.165Z,21.90
2022-09-03T18:32:04.173Z,21.80
2022-09-03T18:34:54.992Z,21.80
2022-09-03T18:37:46.468Z,21.80
2022-09-03T18:40:53.840Z,21.70
2022-09-03T18:44:22.158Z,21.70
2022-09-03T18:48:27.067Z,21.70
2022-09-03T18:51:52.451Z,21.60
2022-09-03T18:55:18.303Z,21.50
2022-09-03T18:59:01.117Z,21.50
2022-09-03T19:01:59.805Z,21.40
2022-09-03T19:05:25.628Z,21.40
2022-09-03T19:08:38.853Z,21.30
2022-09-03T19:12:27.716Z,21.20
2022-09-03T19:15:38.982Z,21.20
2022-09-03T19:19:42.196Z,21.10
2022-09-03T19:22:33.067Z,21.10
2022-09-03T19:25:33.940Z,21.10
2022-09-03T19:28:42.656Z,21.00
2022-09-03T19:32:06.436Z,21.00
2022-09-03T19:35:23.557Z,21.00
2022-09-03T19:39:24.351Z,21.00
2022-09-03T19:42:41.928Z,20.90
2022-09-03T19:46:10.440Z,20.90
2022-09-03T19:49:43.869Z,20.80
2022-09-03T19:53:23.371Z,20.80
2022-09-03T19:56:18.360Z,20.70
2022-09-03T19:59:43.376Z,20.70
2022-09-03T20:02:29.810Z,20.60
2022-09-03T20:05:24.992Z,20.60
2022-09-03T20:08:14.717Z,20.60
2022-09-03T20:10:48.893Z,20.60
2022-09-03T20:13:20.687Z,20.60
2022-09-03T20:16:14.602Z,20.50
2022-09-03T20:19:45.636Z,20.50
2022-09-03T20:22:44.357Z,20.50
2022-09-03T20:26:11.416Z,20.50
2022-09-03T20:29:34.092Z,20.50
2022-09-03T20:32:41.715Z,20.40
2022-09-03T20:35:53.455Z,20.30
2022-09-03T20:39:03.835Z,20.30
2022-09-03T20:42:14.366Z,20.30
2022-09-03T20:45:32.683Z,20.20
2022-09-03T20:48:43.318Z,20.20
2022-09-03T20:51:46.087Z,20.20
2022-09-03T20:54:42.578Z,20.20
2022-09-03T20:58:11.393Z,20.20
2022-09-03T21:01:16.544Z,20.20
2022-09-03T21:04:32.417Z,20.20
2022-09-03T21:07:43.167Z,20.10
2022-09-03T21:10:48.013Z,20.10
2022-09-03T21:13:52.728Z,20.10
2022-09-03T21:17:00.179Z,20.10
2022-09-03T21:20:28.604Z,20.10
2022-09-03T21:23:38.276Z,20.00
2022-09-03T21:26:33.924Z,20.00
2022-09-03T21:29:30.877Z,19.90
2022-09-03T21:32:29.699Z,20.00
2022-09-03T21:35:42.832Z,19.90
2022-09-03T21:38:31.388Z,19.90
2022-09-03T21:41:34.724Z,19.90
2022-09-03T21:44:32.918Z,19.90
2022-09-03T21:47:10.545Z,19.90
2022-09-03T21:49:57.447Z,19.80
2022-09-03T21:53:02.909Z,19.80
2022-09-03T21:56:07.865Z,19.80
2022-09-03T21:59:22.469Z,19.80
2022-09-03T22:02:28.802Z,19.70
2022-09-03T22:04:58.665Z,19.70
2022-09-03T22:08:23.164Z,19.70
2022-09-03T22:12:03.701Z,19.60
2022-09-03T22:14:47.935Z,19.60
2022-09-03T22:17:56.923Z,19.60
2022-09-03T22:20:28.629Z,19.60
2022-09-03T22:23:24.804Z,19.60
2022-09-03T22:26:14.511Z,19.60
2022-09-03T22:29:24.504Z,19.60
2022-09-03T22:32:25.363Z,19.50
2022-09-03T22:35:33.811Z,19.50
2022-09-03T22:38:33.074Z,19.50
2022-09-03T22:41:45.935Z,19.40
2022-09-03T22:44:50.961Z,19.40
2022-09-03T22:48:06.389Z,19.30
2022-09-03T22:50:59.288Z,19.30
2022-09-03T22:54:31.968Z,19.20
2022-09-03T22:57:01.347Z,19.20
2022-09-03T22:59:41.512Z,19.20
2022-09-03T23:02:26.420Z,19.10
2022-09-03T23:05:28.083Z,19.20
2022-09-03T23:08:33.732Z,19.20
2022-09-03T23:11:29.971Z,19.20
2022-09-03T23:14:12.389Z,19.20
2022-09-03T23:16:54.354Z,19.20
2022-09-03T23:19:40.878Z,19.20
2022-09-03T23:22:41.713Z,19.10
2022-09-03T23:25:25.643Z,19.20
2022-09-03T23:28:22.061Z,19.10
2022-09-03T23:30:49.756Z,19.10
2022-09-03T23:33:17.166Z,19.10
2022-09-03T23:37:32.415Z,19.10
2022-09-03T23:40:15.284Z,19.10
2022-09-03T23:43:48.205Z,19.00
2022-09-03T23:47:03.649Z,19.00
2022-09-03T23:50:11.968Z,19.00
2022-09-03T23:53:53.619Z,19.00
2022-09-03T23:57:13.032Z,18.90
